首页
METAR-TAF:

METAR-TAF

机场 :

皮特尔角城, 瓜德罗普

彭德-雅皮特國際機場

纬度: 16-16N, 经度: 061-31W, 海拔: 11米

当前天气观测

该预报发布于15分钟前的23:30 UTC
风速3节,风向东转东北
温度 24°C
湿度 89%
气压 1015 hPa
能见度10公里或以上
1500米以下无云,无积雨云

METAR: TFFR 182330Z AUTO 07003KT CAVOK 24/22 Q1015 TEMPO 4000 SHRA SCT015TCU

时间: 19:45 (23:45 UTC)

预报

该预报发布于45分钟前的23:00 UTC
预报有效从19日的 00点(UTC)到 19日的 24点(UTC)
风速7节,风向
能见度10公里或以上
散云层高于3000英尺
短暂存在
从 19日的 00点(UTC)到 19日的 15点(UTC)
能見度: 4000
散云层高于1500英尺, 塔状积云.
阵雨

TAF: TFFR 182300Z 1900/1924 10007KT 9999 SCT030 TEMPO 1900/1915 4000 SHRA SCT015TCU

超过4000个机场的气象观测和天气预报(METAR&TAF报告)。

可查询的气象台以黄色和红色小点在地图上表示。

将鼠标移到小点上方,可查看气象台名称。

然后点击查看天气观测和预报。

如需切换地图:点击带黑十字的绿色按钮放大地图;点击带横线的绿色按钮缩小地图;或者点击绿色箭头查看邻近地区的地图。


METAR-TAF: